Time;durP1;ratioP1;P1;durP2;ratioP2;P2;SDS_P1;SDS_P2;PMS_P1;PMS_P2;Temp;Humidity;BMP_temperature;BMP_pressure;BME280_temperature;BME280_humidity;BME280_pressure;Samples;Min_cycle;Max_cycle;Signal;HPM_P1;HPM_P2
2022/05/06 06:08:58;;;;;;;44.50;32.87;;;;;;;;;;7372666;19;20148;-77
2022/05/06 06:11:24;;;;;;;47.67;33.33;;;;;;;;;;7371183;19;21745;-77
2022/05/06 06:13:50;;;;;;;48.53;31.93;;;;;;;;;;7377962;19;20261;-77
2022/05/06 06:16:17;;;;;;;47.97;32.30;;;;;;;;;;7381637;19;20843;-77
2022/05/06 06:18:43;;;;;;;40.70;31.07;;;;;;;;;;7387336;19;22161;-78
2022/05/06 06:21:09;;;;;;;41.73;32.10;;;;;;;;;;7383881;19;20251;-77
2022/05/06 06:23:35;;;;;;;50.17;32.87;;;;;;;;;;7383324;19;20202;-77
2022/05/06 06:26:01;;;;;;;41.93;31.30;;;;;;;;;;7380230;19;20531;-77
2022/05/06 06:28:27;;;;;;;42.03;31.03;;;;;;;;;;7388339;19;20172;-77
2022/05/06 06:30:53;;;;;;;34.37;29.03;;;;;;;;;;7376129;19;20121;-77
2022/05/06 06:33:19;;;;;;;37.37;30.67;;;;;;;;;;7382871;19;20138;-77
2022/05/06 06:35:45;;;;;;;34.73;27.90;;;;;;;;;;7382038;19;20168;-78
2022/05/06 06:38:11;;;;;;;34.80;30.40;;;;;;;;;;7373120;19;20473;-79
2022/05/06 06:40:37;;;;;;;41.10;30.90;;;;;;;;;;7384185;19;20145;-78
2022/05/06 06:43:03;;;;;;;36.63;28.87;;;;;;;;;;7379457;19;20595;-78
2022/05/06 06:45:29;;;;;;;38.97;31.43;;;;;;;;;;7381291;19;20153;-78
2022/05/06 06:47:55;;;;;;;41.93;31.93;;;;;;;;;;7382667;19;20531;-77
2022/05/06 06:50:23;;;;;;;34.83;29.07;;;;;;;;;;7379361;19;20148;-76
2022/05/06 06:52:50;;;;;;;32.83;26.87;;;;;;;;;;7383084;19;20136;-77
2022/05/06 06:55:16;;;;;;;30.90;27.57;;;;;;;;;;7381162;19;20618;-76
2022/05/06 06:57:42;;;;;;;36.63;29.20;;;;;;;;;;7380113;19;20128;-77
2022/05/06 07:00:08;;;;;;;33.37;28.90;;;;;;;;;;7372601;19;20135;-77
2022/05/06 07:02:36;;;;;;;37.00;28.67;;;;;;;;;;7379838;19;20473;-77
2022/05/06 07:05:02;;;;;;;35.23;28.73;;;;;;;;;;7379628;19;20697;-77
2022/05/06 07:12:57;;;;;;;36.10;29.43;;;;;;;;;;7382566;19;20147;-76
2022/05/06 07:15:23;;;;;;;29.70;25.80;;;;;;;;;;7372430;19;20744;-76
2022/05/06 07:17:49;;;;;;;31.97;27.37;;;;;;;;;;7385111;19;20128;-77
2022/05/06 07:20:16;;;;;;;28.07;25.27;;;;;;;;;;7381460;19;20587;-77
2022/05/06 07:22:42;;;;;;;32.50;26.63;;;;;;;;;;7365550;19;20140;-77
2022/05/06 07:25:08;;;;;;;30.80;26.60;;;;;;;;;;7360670;19;20185;-77
2022/05/06 07:27:35;;;;;;;41.73;28.47;;;;;;;;;;7358676;19;20136;-77
2022/05/06 07:30:02;;;;;;;35.93;29.43;;;;;;;;;;7360883;19;20171;-76
2022/05/06 07:32:28;;;;;;;37.33;30.03;;;;;;;;;;7351480;19;20141;-76
2022/05/06 07:34:54;;;;;;;39.60;31.03;;;;;;;;;;7378748;19;20149;-76
2022/05/06 07:37:20;;;;;;;33.50;28.23;;;;;;;;;;7365334;19;20611;-76
2022/05/06 07:39:46;;;;;;;40.97;31.93;;;;;;;;;;7373464;19;21503;-75
2022/05/06 07:42:12;;;;;;;43.60;31.70;;;;;;;;;;7370489;19;20144;-75
2022/05/06 07:44:38;;;;;;;41.97;30.70;;;;;;;;;;7381731;19;20175;-76
2022/05/06 07:47:04;;;;;;;30.67;27.37;;;;;;;;;;7386133;19;20158;-76
2022/05/06 07:49:30;;;;;;;36.97;30.83;;;;;;;;;;7379612;19;20670;-76
2022/05/06 07:51:56;;;;;;;34.07;29.47;;;;;;;;;;7366382;19;20140;-76
2022/05/06 07:54:22;;;;;;;34.43;28.43;;;;;;;;;;7321481;19;20176;-76
2022/05/06 07:56:48;;;;;;;42.97;32.47;;;;;;;;;;7368193;19;20140;-76
2022/05/06 07:59:14;;;;;;;43.90;33.07;;;;;;;;;;7355310;19;20129;-76
2022/05/06 08:04:48;;;;;;;43.77;33.10;;;;;;;;;;7320538;19;20169;-76
2022/05/06 08:07:14;;;;;;;48.03;33.17;;;;;;;;;;7318682;19;20157;-76
2022/05/06 08:09:40;;;;;;;53.27;35.00;;;;;;;;;;7313911;19;20129;-76
2022/05/06 08:12:06;;;;;;;37.97;31.97;;;;;;;;;;7339729;19;20219;-76
2022/05/06 08:14:32;;;;;;;34.57;30.80;;;;;;;;;;7349047;19;20653;-76
2022/05/06 08:16:59;;;;;;;40.83;30.83;;;;;;;;;;7384371;19;20640;-76
2022/05/06 08:19:25;;;;;;;41.90;31.97;;;;;;;;;;7386835;19;20223;-76
2022/05/06 08:21:52;;;;;;;33.97;29.57;;;;;;;;;;7373492;19;20132;-76
2022/05/06 08:24:18;;;;;;;52.37;35.37;;;;;;;;;;7328057;19;20184;-76
2022/05/06 08:26:44;;;;;;;52.13;34.77;;;;;;;;;;7327366;19;20133;-76
2022/05/06 08:29:10;;;;;;;45.30;30.73;;;;;;;;;;7367676;19;20152;-77
2022/05/06 08:31:39;;;;;;;33.30;27.73;;;;;;;;;;7374950;19;20132;-76
2022/05/06 08:34:07;;;;;;;38.17;30.40;;;;;;;;;;7364136;19;20224;-76
2022/05/06 08:36:34;;;;;;;40.27;31.60;;;;;;;;;;7364257;19;20709;-76
2022/05/06 08:39:00;;;;;;;40.40;31.23;;;;;;;;;;7375784;19;20482;-76
2022/05/06 08:41:26;;;;;;;52.60;32.97;;;;;;;;;;7377473;19;20109;-76
2022/05/06 08:43:52;;;;;;;41.07;31.00;;;;;;;;;;7365970;19;20794;-76
2022/05/06 08:51:51;;;;;;;45.13;34.03;;;;;;;;;;7378247;19;20713;-76
2022/05/06 08:54:18;;;;;;;42.33;32.00;;;;;;;;;;7371485;19;20148;-76
2022/05/06 08:56:44;;;;;;;36.47;30.37;;;;;;;;;;7358704;19;20140;-76
2022/05/06 08:59:10;;;;;;;43.23;32.23;;;;;;;;;;7370982;19;20153;-76
2022/05/06 09:01:36;;;;;;;35.03;29.90;;;;;;;;;;7365602;19;20132;-76
2022/05/06 09:04:02;;;;;;;36.57;29.47;;;;;;;;;;7373817;19;20148;-77
2022/05/06 09:06:31;;;;;;;43.00;33.13;;;;;;;;;;7376461;19;20125;-76
2022/05/06 09:08:58;;;;;;;35.73;30.63;;;;;;;;;;7374831;19;20140;-76
2022/05/06 09:14:15;;;;;;;43.87;32.63;;;;;;;;;;7367419;19;20151;-75
2022/05/06 09:16:41;;;;;;;41.50;31.10;;;;;;;;;;7374090;19;20149;-76
2022/05/06 09:19:28;;;;;;;48.07;33.57;;;;;;;;;;7372688;19;20533;-76
2022/05/06 09:22:00;;;;;;;51.37;35.63;;;;;;;;;;7370515;19;20161;-76
2022/05/06 09:24:30;;;;;;;47.43;34.70;;;;;;;;;;7364332;19;20185;-76
2022/05/06 09:27:07;;;;;;;49.20;34.63;;;;;;;;;;7372973;19;20614;-76
2022/05/06 09:29:34;;;;;;;43.40;33.13;;;;;;;;;;7368401;19;20618;-76
2022/05/06 09:32:13;;;;;;;51.10;34.70;;;;;;;;;;7375572;19;20149;-77
2022/05/06 09:34:40;;;;;;;51.10;34.93;;;;;;;;;;7376919;19;20160;-76
2022/05/06 09:37:06;;;;;;;45.53;33.60;;;;;;;;;;7378325;19;20488;-76
2022/05/06 09:39:32;;;;;;;56.27;36.90;;;;;;;;;;7377615;19;20566;-76
2022/05/06 09:42:03;;;;;;;52.33;35.43;;;;;;;;;;7378193;19;20125;-76
2022/05/06 09:44:29;;;;;;;50.53;36.33;;;;;;;;;;7360910;19;20176;-76
2022/05/06 09:47:10;;;;;;;49.67;35.73;;;;;;;;;;7380388;19;20140;-76
2022/05/06 09:49:40;;;;;;;64.07;37.33;;;;;;;;;;7369124;19;20545;-77
2022/05/06 09:52:10;;;;;;;62.63;38.53;;;;;;;;;;7368873;19;20136;-76
2022/05/06 09:54:36;;;;;;;56.17;39.10;;;;;;;;;;7374329;19;20141;-76
2022/05/06 09:57:06;;;;;;;55.83;36.73;;;;;;;;;;7383380;19;20164;-76
2022/05/06 09:59:32;;;;;;;58.83;40.03;;;;;;;;;;7379194;19;20167;-77
2022/05/06 10:01:58;;;;;;;56.00;37.47;;;;;;;;;;7384166;19;20160;-77
2022/05/06 10:04:24;;;;;;;52.13;35.57;;;;;;;;;;7389938;19;20156;-77
2022/05/06 10:06:50;;;;;;;58.50;38.10;;;;;;;;;;7375683;19;20129;-76
2022/05/06 10:09:20;;;;;;;51.60;36.77;;;;;;;;;;7372473;19;20148;-76
2022/05/06 10:11:46;;;;;;;50.93;36.23;;;;;;;;;;7381247;19;20204;-76
2022/05/06 10:14:14;;;;;;;44.20;32.23;;;;;;;;;;7381591;19;20619;-76
2022/05/06 10:16:41;;;;;;;50.93;29.97;;;;;;;;;;7373753;19;20606;-76
2022/05/06 10:19:29;;;;;;;37.40;25.27;;;;;;;;;;7383049;19;20128;-76
2022/05/06 10:21:58;;;;;;;39.13;27.77;;;;;;;;;;7384644;19;20132;-76
2022/05/06 10:24:24;;;;;;;34.57;25.03;;;;;;;;;;7384646;19;20647;-76
2022/05/06 10:26:51;;;;;;;43.40;26.57;;;;;;;;;;7384073;19;20140;-75
2022/05/06 10:32:34;;;;;;;41.17;26.20;;;;;;;;;;7383873;19;20144;-76
2022/05/06 10:35:05;;;;;;;41.67;27.00;;;;;;;;;;7381225;19;20152;-76
2022/05/06 10:37:43;;;;;;;50.67;29.67;;;;;;;;;;7376444;19;20125;-76
2022/05/06 10:40:24;;;;;;;41.70;27.47;;;;;;;;;;7380203;19;20136;-76
2022/05/06 10:42:50;;;;;;;42.23;29.10;;;;;;;;;;7376858;19;20849;-76
2022/05/06 10:45:23;;;;;;;46.47;30.27;;;;;;;;;;7383926;19;20152;-76
2022/05/06 10:47:50;;;;;;;36.20;24.53;;;;;;;;;;7370528;19;20133;-76
2022/05/06 10:50:19;;;;;;;50.47;31.87;;;;;;;;;;7369382;19;20180;-76
2022/05/06 10:52:45;;;;;;;44.00;29.83;;;;;;;;;;7361589;19;20160;-76
2022/05/06 10:55:13;;;;;;;46.03;30.73;;;;;;;;;;7372667;19;21117;-76
2022/05/06 10:57:48;;;;;;;45.10;32.20;;;;;;;;;;7380384;19;20172;-76
2022/05/06 11:00:14;;;;;;;36.47;27.70;;;;;;;;;;7381626;19;20178;-76
2022/05/06 11:02:40;;;;;;;47.87;33.30;;;;;;;;;;7385109;19;20140;-75
2022/05/06 11:05:06;;;;;;;48.83;33.27;;;;;;;;;;7384961;19;20153;-76
2022/05/06 11:07:34;;;;;;;49.90;34.17;;;;;;;;;;7382165;19;20179;-75
2022/05/06 11:10:06;;;;;;;43.03;31.60;;;;;;;;;;7386130;19;20132;-75
2022/05/06 11:12:33;;;;;;;44.17;32.87;;;;;;;;;;7369648;19;20213;-76
2022/05/06 11:15:02;;;;;;;43.10;31.83;;;;;;;;;;7384540;19;20141;-76
2022/05/06 11:17:28;;;;;;;40.37;32.23;;;;;;;;;;7370604;19;20204;-76
2022/05/06 11:19:54;;;;;;;41.10;33.43;;;;;;;;;;7382156;19;21613;-76
2022/05/06 11:22:26;;;;;;;45.03;33.17;;;;;;;;;;7377689;19;20152;-77
2022/05/06 11:24:56;;;;;;;45.83;34.17;;;;;;;;;;7370127;19;20168;-77
2022/05/06 11:27:22;;;;;;;46.00;34.40;;;;;;;;;;7369523;19;20579;-76
2022/05/06 11:29:48;;;;;;;49.03;35.73;;;;;;;;;;7373896;19;20544;-75
2022/05/06 11:32:14;;;;;;;49.43;35.40;;;;;;;;;;7386406;19;20145;-76
2022/05/06 11:34:46;;;;;;;39.30;30.63;;;;;;;;;;7384816;19;20169;-76
2022/05/06 11:37:20;;;;;;;43.63;33.30;;;;;;;;;;7386930;19;20650;-76
2022/05/06 11:39:46;;;;;;;50.07;34.87;;;;;;;;;;7387166;19;20161;-75
2022/05/06 11:42:24;;;;;;;40.83;33.10;;;;;;;;;;7388911;19;20135;-75
2022/05/06 11:47:44;;;;;;;44.33;34.60;;;;;;;;;;7379977;19;20143;-76
2022/05/06 11:50:11;;;;;;;37.87;28.60;;;;;;;;;;7381938;19;20140;-76
2022/05/06 11:52:38;;;;;;;43.20;32.73;;;;;;;;;;7387356;19;20643;-75
2022/05/06 11:55:05;;;;;;;41.73;31.83;;;;;;;;;;7383476;19;20145;-76
2022/05/06 11:57:31;;;;;;;46.77;33.07;;;;;;;;;;7387045;19;20481;-76
2022/05/06 11:59:57;;;;;;;36.50;30.60;;;;;;;;;;7385862;19;20153;-76
2022/05/06 12:02:23;;;;;;;39.03;32.40;;;;;;;;;;7392227;19;20125;-76
2022/05/06 12:04:49;;;;;;;42.33;33.13;;;;;;;;;;7386665;19;20172;-76
2022/05/06 12:07:15;;;;;;;44.03;34.27;;;;;;;;;;7392243;19;20557;-76
2022/05/06 12:09:45;;;;;;;44.77;34.43;;;;;;;;;;7388236;19;20136;-76
2022/05/06 12:12:11;;;;;;;40.77;32.73;;;;;;;;;;7409809;19;20121;-76
2022/05/06 12:14:38;;;;;;;40.13;32.47;;;;;;;;;;7409166;19;20176;-76
2022/05/06 12:17:05;;;;;;;35.83;30.90;;;;;;;;;;7410257;19;20121;-75
2022/05/06 12:19:34;;;;;;;36.43;31.17;;;;;;;;;;7406441;19;20149;-75
2022/05/06 12:22:23;;;;;;;41.97;32.63;;;;;;;;;;7385997;19;20599;-76
2022/05/06 12:24:50;;;;;;;41.60;30.77;;;;;;;;;;7378697;19;20251;-76
2022/05/06 12:27:26;;;;;;;37.93;30.87;;;;;;;;;;7382012;19;20150;-76
2022/05/06 12:29:52;;;;;;;38.20;30.93;;;;;;;;;;7378584;19;20136;-76
2022/05/06 12:32:18;;;;;;;33.03;29.23;;;;;;;;;;7378118;19;20173;-76
2022/05/06 12:34:44;;;;;;;33.23;28.20;;;;;;;;;;7379774;19;20177;-76
2022/05/06 12:37:14;;;;;;;31.97;28.20;;;;;;;;;;7382243;19;20141;-75
2022/05/06 12:39:45;;;;;;;30.60;27.40;;;;;;;;;;7382680;19;20125;-76
2022/05/06 12:42:18;;;;;;;32.70;28.37;;;;;;;;;;7378225;19;20129;-75
2022/05/06 12:44:45;;;;;;;30.60;27.33;;;;;;;;;;7384502;19;20220;-76
2022/05/06 12:50:07;;;;;;;31.63;26.53;;;;;;;;;;7380673;19;20201;-76
2022/05/06 12:52:35;;;;;;;30.93;27.30;;;;;;;;;;7384999;19;20129;-77
2022/05/06 12:55:01;;;;;;;34.13;28.07;;;;;;;;;;7384225;19;20495;-77
2022/05/06 12:57:28;;;;;;;33.67;28.37;;;;;;;;;;7393664;19;20148;-76
2022/05/06 12:59:54;;;;;;;30.10;26.93;;;;;;;;;;7392486;19;20129;-76
2022/05/06 13:02:20;;;;;;;32.83;28.20;;;;;;;;;;7392848;19;20223;-76
2022/05/06 13:04:47;;;;;;;31.27;27.37;;;;;;;;;;7387281;19;20566;-77
2022/05/06 13:07:13;;;;;;;34.10;28.37;;;;;;;;;;7390347;19;20238;-77
2022/05/06 13:09:39;;;;;;;34.63;28.73;;;;;;;;;;7390082;19;20205;-78
2022/05/06 13:12:06;;;;;;;35.73;29.37;;;;;;;;;;7391199;19;20152;-76
2022/05/06 13:14:32;;;;;;;32.40;26.63;;;;;;;;;;7380784;19;20183;-76
2022/05/06 13:16:58;;;;;;;30.17;24.57;;;;;;;;;;7383774;19;20136;-76
2022/05/06 13:19:24;;;;;;;33.87;26.47;;;;;;;;;;7385732;19;20164;-75
2022/05/06 13:21:50;;;;;;;31.67;26.90;;;;;;;;;;7387023;19;20634;-76
2022/05/06 13:24:16;;;;;;;32.40;26.93;;;;;;;;;;7375322;19;20149;-75
2022/05/06 13:26:42;;;;;;;31.83;26.53;;;;;;;;;;7386995;19;20469;-76
2022/05/06 13:29:08;;;;;;;33.07;25.67;;;;;;;;;;7384930;19;20164;-75
2022/05/06 13:31:34;;;;;;;31.50;25.87;;;;;;;;;;7379850;19;20144;-76
2022/05/06 13:34:01;;;;;;;29.77;23.30;;;;;;;;;;7372196;19;20128;-76
2022/05/06 13:36:29;;;;;;;30.50;26.47;;;;;;;;;;7359954;19;20567;-77
2022/05/06 13:38:55;;;;;;;30.23;23.67;;;;;;;;;;7365339;19;20614;-78
2022/05/06 13:41:23;;;;;;;31.63;27.33;;;;;;;;;;7377639;19;20121;-76
2022/05/06 13:43:49;;;;;;;29.00;24.63;;;;;;;;;;7369134;19;20229;-76
2022/05/06 13:46:15;;;;;;;30.43;25.40;;;;;;;;;;7375596;19;20120;-76
2022/05/06 13:48:41;;;;;;;26.70;23.90;;;;;;;;;;7373049;19;20149;-76
2022/05/06 13:51:07;;;;;;;24.77;22.17;;;;;;;;;;7383254;19;20225;-77
2022/05/06 13:53:33;;;;;;;27.53;23.83;;;;;;;;;;7372876;19;20145;-78
2022/05/06 14:01:30;;;;;;;23.10;20.20;;;;;;;;;;7376436;19;20141;-77
2022/05/06 14:03:56;;;;;;;22.35;20.15;;;;;;;;;;7384438;19;20117;-77
2022/05/06 14:06:22;;;;;;;20.80;18.80;;;;;;;;;;7383016;19;20133;-77
2022/05/06 14:08:48;;;;;;;22.20;19.95;;;;;;;;;;7383067;19;20631;-77
2022/05/06 14:11:16;;;;;;;19.90;17.90;;;;;;;;;;7382583;19;20127;-77
2022/05/06 14:13:42;;;;;;;20.73;18.70;;;;;;;;;;7384095;19;20133;-77
2022/05/06 14:16:08;;;;;;;19.77;17.58;;;;;;;;;;7380838;19;20163;-76
2022/05/06 14:18:34;;;;;;;18.98;17.08;;;;;;;;;;7379136;19;20615;-77
2022/05/06 14:21:00;;;;;;;20.27;18.23;;;;;;;;;;7376468;19;20135;-77
2022/05/06 14:23:26;;;;;;;20.85;17.58;;;;;;;;;;7372193;19;20141;-77
2022/05/06 14:25:53;;;;;;;19.73;17.63;;;;;;;;;;7375686;19;20176;-77
2022/05/06 14:28:19;;;;;;;19.77;17.70;;;;;;;;;;7373989;19;20141;-77
2022/05/06 14:30:46;;;;;;;21.45;19.25;;;;;;;;;;7371843;19;20467;-77
2022/05/06 14:33:12;;;;;;;21.98;18.85;;;;;;;;;;7370154;19;20165;-77
2022/05/06 14:35:38;;;;;;;20.92;18.45;;;;;;;;;;7365400;19;20156;-76
2022/05/06 14:38:04;;;;;;;19.83;16.75;;;;;;;;;;7379053;19;20193;-77
2022/05/06 14:40:31;;;;;;;18.17;16.35;;;;;;;;;;7371359;19;20129;-77
2022/05/06 14:42:57;;;;;;;19.23;17.25;;;;;;;;;;7372603;19;20360;-77
2022/05/06 14:45:24;;;;;;;17.92;16.02;;;;;;;;;;7365583;19;22096;-77
2022/05/06 14:47:50;;;;;;;18.42;16.55;;;;;;;;;;7375950;19;20165;-76
2022/05/06 14:50:16;;;;;;;18.05;16.15;;;;;;;;;;7360390;19;20244;-77
2022/05/06 14:52:42;;;;;;;17.80;15.93;;;;;;;;;;7372775;19;20156;-78
2022/05/06 14:55:09;;;;;;;18.70;16.67;;;;;;;;;;7377112;19;20528;-76
2022/05/06 14:57:36;;;;;;;18.08;16.25;;;;;;;;;;7381983;19;20125;-77
2022/05/06 15:00:02;;;;;;;18.35;16.30;;;;;;;;;;7384221;19;20575;-76
2022/05/06 15:02:28;;;;;;;18.85;16.88;;;;;;;;;;7383493;19;20140;-76
2022/05/06 15:04:54;;;;;;;18.52;16.63;;;;;;;;;;7379672;19;20635;-76
2022/05/06 15:07:20;;;;;;;19.15;17.13;;;;;;;;;;7373622;19;20403;-76
2022/05/06 15:09:46;;;;;;;21.35;17.25;;;;;;;;;;7375692;19;20587;-76
2022/05/06 15:12:15;;;;;;;20.40;18.40;;;;;;;;;;7370565;19;20153;-76
2022/05/06 15:14:41;;;;;;;22.05;19.77;;;;;;;;;;7384571;19;20200;-75
2022/05/06 15:17:07;;;;;;;19.67;17.58;;;;;;;;;;7375477;19;20166;-75
2022/05/06 15:19:34;;;;;;;18.43;16.57;;;;;;;;;;7375240;19;20149;-76
2022/05/06 15:22:06;;;;;;;19.73;17.42;;;;;;;;;;7380770;19;20148;-75
2022/05/06 15:24:32;;;;;;;18.43;16.33;;;;;;;;;;7384845;19;20194;-77
2022/05/06 15:26:59;;;;;;;17.33;15.47;;;;;;;;;;7379714;19;20155;-77
2022/05/06 15:29:25;;;;;;;16.43;14.67;;;;;;;;;;7378499;19;20212;-75
2022/05/06 15:31:51;;;;;;;17.63;15.83;;;;;;;;;;7380260;19;20517;-77
2022/05/06 15:34:17;;;;;;;17.17;15.47;;;;;;;;;;7377578;19;20172;-75
2022/05/06 15:36:44;;;;;;;16.27;14.67;;;;;;;;;;7383536;19;20221;-76
2022/05/06 15:39:10;;;;;;;17.57;15.40;;;;;;;;;;7383802;19;20137;-77
2022/05/06 15:41:39;;;;;;;17.60;15.80;;;;;;;;;;7378615;19;20176;-76
2022/05/06 15:44:08;;;;;;;16.63;14.93;;;;;;;;;;7382347;19;20133;-77
2022/05/06 15:46:37;;;;;;;19.03;15.47;;;;;;;;;;7381218;19;20121;-76
2022/05/06 15:49:06;;;;;;;15.70;14.10;;;;;;;;;;7384066;19;20144;-76
2022/05/06 15:51:32;;;;;;;16.37;14.37;;;;;;;;;;7375471;19;20149;-76
2022/05/06 15:53:59;;;;;;;14.77;13.10;;;;;;;;;;7374189;19;20463;-77
2022/05/06 15:56:25;;;;;;;14.90;13.37;;;;;;;;;;7378953;19;20140;-76
2022/05/06 15:58:51;;;;;;;16.90;13.47;;;;;;;;;;7377789;19;20614;-76
2022/05/06 16:01:17;;;;;;;14.57;12.63;;;;;;;;;;7379402;19;20599;-78
2022/05/06 16:03:43;;;;;;;17.17;12.80;;;;;;;;;;7378861;19;20160;-75
2022/05/06 16:06:10;;;;;;;13.47;12.07;;;;;;;;;;7377657;19;20192;-75
2022/05/06 16:08:36;;;;;;;15.27;13.20;;;;;;;;;;7382873;19;20125;-75
2022/05/06 16:11:02;;;;;;;13.60;12.17;;;;;;;;;;7381471;19;20167;-77
2022/05/06 16:13:28;;;;;;;13.03;11.67;;;;;;;;;;7383464;19;20145;-76
2022/05/06 16:15:55;;;;;;;13.97;12.10;;;;;;;;;;7385717;19;20654;-77
2022/05/06 16:18:21;;;;;;;13.87;12.07;;;;;;;;;;7378096;19;20137;-78
2022/05/06 16:20:48;;;;;;;13.07;11.77;;;;;;;;;;7389691;19;20162;-76
2022/05/06 16:23:14;;;;;;;12.60;11.27;;;;;;;;;;7391632;19;20125;-75
2022/05/06 16:25:41;;;;;;;12.60;11.20;;;;;;;;;;7384243;19;20646;-75
2022/05/06 16:28:10;;;;;;;12.93;11.63;;;;;;;;;;7387679;19;20227;-75
2022/05/06 16:30:36;;;;;;;14.10;11.97;;;;;;;;;;7378478;19;20619;-75
2022/05/06 16:33:03;;;;;;;12.77;11.40;;;;;;;;;;7383838;19;20123;-76
2022/05/06 16:38:14;;;;;;;14.57;12.40;;;;;;;;;;7384842;19;20740;-77
2022/05/06 16:40:41;;;;;;;13.60;11.97;;;;;;;;;;7372564;19;20168;-76
2022/05/06 16:43:07;;;;;;;12.77;11.57;;;;;;;;;;7380357;19;20141;-75
2022/05/06 16:45:33;;;;;;;13.37;11.40;;;;;;;;;;7385161;19;20144;-76
2022/05/06 16:48:00;;;;;;;12.87;11.57;;;;;;;;;;7383596;19;20141;-78
2022/05/06 16:50:26;;;;;;;12.77;11.33;;;;;;;;;;7365338;19;20607;-75
2022/05/06 16:52:52;;;;;;;12.90;11.60;;;;;;;;;;7382276;19;20490;-76
2022/05/06 16:55:19;;;;;;;11.97;10.50;;;;;;;;;;7382463;19;20156;-76
2022/05/06 16:57:45;;;;;;;13.77;10.77;;;;;;;;;;7372039;19;20161;-78
2022/05/06 17:00:16;;;;;;;12.83;10.90;;;;;;;;;;7387998;19;20129;-76
2022/05/06 17:02:42;;;;;;;12.90;11.07;;;;;;;;;;7384515;19;20134;-76
2022/05/06 17:05:08;;;;;;;10.57;9.47;;;;;;;;;;7383238;19;20160;-75
2022/05/06 17:07:36;;;;;;;13.27;10.13;;;;;;;;;;7382601;19;20212;-77
2022/05/06 17:10:03;;;;;;;10.97;9.77;;;;;;;;;;7381250;19;20273;-76
2022/05/06 17:12:29;;;;;;;10.27;9.20;;;;;;;;;;7380747;19;20638;-75
2022/05/06 17:14:55;;;;;;;11.30;10.17;;;;;;;;;;7385369;19;20153;-78
2022/05/06 17:17:21;;;;;;;10.20;9.13;;;;;;;;;;7384962;19;20234;-79
2022/05/06 17:19:47;;;;;;;9.43;8.20;;;;;;;;;;7388204;19;20129;-76
2022/05/06 17:22:15;;;;;;;9.67;8.27;;;;;;;;;;7378385;19;20158;-78
2022/05/06 17:24:41;;;;;;;9.57;8.67;;;;;;;;;;7380470;19;20203;-77
2022/05/06 17:27:07;;;;;;;10.77;8.50;;;;;;;;;;7381103;19;20125;-77
2022/05/06 17:29:33;;;;;;;10.63;9.50;;;;;;;;;;7380175;19;20141;-77
2022/05/06 17:32:00;;;;;;;9.73;8.73;;;;;;;;;;7370192;19;20608;-78
2022/05/06 17:34:27;;;;;;;11.40;9.30;;;;;;;;;;7373241;19;20163;-76
2022/05/06 17:36:53;;;;;;;9.57;8.67;;;;;;;;;;7377380;19;20133;-77
2022/05/06 17:39:19;;;;;;;10.40;9.32;;;;;;;;;;7368939;19;20144;-76
2022/05/06 17:41:45;;;;;;;10.13;8.97;;;;;;;;;;7383901;19;20144;-76
2022/05/06 17:44:11;;;;;;;11.60;9.73;;;;;;;;;;7378060;19;20153;-75
2022/05/06 17:46:39;;;;;;;10.90;9.30;;;;;;;;;;7378934;19;20133;-76
2022/05/06 17:49:06;;;;;;;10.70;9.33;;;;;;;;;;7380015;19;20345;-76
2022/05/06 17:51:32;;;;;;;11.50;9.33;;;;;;;;;;7382648;19;20568;-76
2022/05/06 17:53:58;;;;;;;11.63;8.90;;;;;;;;;;7376192;19;20174;-76
2022/05/06 17:56:24;;;;;;;9.93;8.73;;;;;;;;;;7388719;19;20125;-76
2022/05/06 17:58:52;;;;;;;11.23;10.07;;;;;;;;;;7384394;19;20133;-78
2022/05/06 18:01:21;;;;;;;11.00;9.10;;;;;;;;;;7387704;19;20145;-77
2022/05/06 18:03:52;;;;;;;11.07;9.90;;;;;;;;;;7376789;19;20125;-76
2022/05/06 18:06:18;;;;;;;14.07;9.50;;;;;;;;;;7366938;19;20188;-76
2022/05/06 18:08:45;;;;;;;11.27;9.83;;;;;;;;;;7380040;19;20229;-75
2022/05/06 18:11:11;;;;;;;10.47;9.37;;;;;;;;;;7371561;19;20125;-75
2022/05/06 18:13:38;;;;;;;13.60;10.20;;;;;;;;;;7379461;19;20610;-76
2022/05/06 18:16:05;;;;;;;11.40;10.23;;;;;;;;;;7366359;19;20206;-76
2022/05/06 18:18:32;;;;;;;13.37;9.60;;;;;;;;;;7377419;19;20148;-78
2022/05/06 18:20:58;;;;;;;11.97;10.43;;;;;;;;;;7373650;19;20177;-79
2022/05/06 18:23:25;;;;;;;12.47;10.90;;;;;;;;;;7376416;19;20137;-76
2022/05/06 18:25:51;;;;;;;12.00;10.80;;;;;;;;;;7368929;19;20212;-78
2022/05/06 18:28:17;;;;;;;13.03;11.73;;;;;;;;;;7372308;19;20643;-75
2022/05/06 18:30:43;;;;;;;11.13;10.03;;;;;;;;;;7380797;19;20156;-75
2022/05/06 18:33:23;;;;;;;14.63;11.00;;;;;;;;;;7374469;19;20144;-76
2022/05/06 18:35:50;;;;;;;12.87;11.57;;;;;;;;;;7379257;19;20152;-76
2022/05/06 18:38:17;;;;;;;12.27;10.77;;;;;;;;;;7368869;19;20144;-76
2022/05/06 18:40:43;;;;;;;13.17;11.80;;;;;;;;;;7378235;19;20137;-75
2022/05/06 18:43:10;;;;;;;13.77;10.83;;;;;;;;;;7384201;19;20501;-75
2022/05/06 18:45:36;;;;;;;15.87;11.37;;;;;;;;;;7379142;19;20627;-75
2022/05/06 18:48:02;;;;;;;15.93;11.80;;;;;;;;;;7372577;19;20136;-75
2022/05/06 18:50:28;;;;;;;13.83;12.10;;;;;;;;;;7373864;19;20129;-76
2022/05/06 18:52:54;;;;;;;14.80;12.73;;;;;;;;;;7374913;19;20177;-76
2022/05/06 18:55:21;;;;;;;13.23;11.70;;;;;;;;;;7379039;19;20176;-76
2022/05/06 18:57:47;;;;;;;14.13;12.67;;;;;;;;;;7369010;19;20133;-76
2022/05/06 19:00:14;;;;;;;17.80;15.00;;;;;;;;;;7372017;19;20135;-75
2022/05/06 19:02:40;;;;;;;17.00;14.50;;;;;;;;;;7369385;19;21120;-78
2022/05/06 19:05:06;;;;;;;18.03;14.53;;;;;;;;;;7370665;19;20165;-75
2022/05/06 19:07:32;;;;;;;18.77;14.80;;;;;;;;;;7381743;19;20686;-76
2022/05/06 19:09:59;;;;;;;16.03;13.80;;;;;;;;;;7385633;19;20811;-75
2022/05/06 19:12:25;;;;;;;17.23;13.00;;;;;;;;;;7378738;19;20195;-75
2022/05/06 19:14:51;;;;;;;14.97;13.30;;;;;;;;;;7377848;19;20728;-76
2022/05/06 19:17:18;;;;;;;15.00;13.47;;;;;;;;;;7372378;19;20149;-76
2022/05/06 19:19:44;;;;;;;14.17;12.67;;;;;;;;;;7379872;19;20160;-76
2022/05/06 19:24:55;;;;;;;15.67;14.00;;;;;;;;;;7380373;19;20168;-76
2022/05/06 19:27:23;;;;;;;15.30;12.97;;;;;;;;;;7371128;19;20129;-75
2022/05/06 19:29:50;;;;;;;17.80;13.83;;;;;;;;;;7382067;19;20140;-79
2022/05/06 19:32:17;;;;;;;16.17;13.57;;;;;;;;;;7374854;19;20164;-77
2022/05/06 19:34:49;;;;;;;16.30;14.50;;;;;;;;;;7377522;19;20535;-77
2022/05/06 19:37:16;;;;;;;16.90;14.43;;;;;;;;;;7374178;19;20157;-76
2022/05/06 19:39:42;;;;;;;16.37;14.57;;;;;;;;;;7376814;19;20586;-79
2022/05/06 19:42:12;;;;;;;19.17;14.27;;;;;;;;;;7380079;19;20130;-80
2022/05/06 19:44:39;;;;;;;16.30;14.03;;;;;;;;;;7379086;19;20148;-78
2022/05/06 19:47:05;;;;;;;16.63;14.13;;;;;;;;;;7378737;19;20177;-78
2022/05/06 19:49:32;;;;;;;16.10;13.43;;;;;;;;;;7382449;19;20155;-77
2022/05/06 19:54:43;;;;;;;18.10;15.67;;;;;;;;;;7389078;19;20674;-77
2022/05/06 19:57:10;;;;;;;17.27;14.93;;;;;;;;;;7386282;19;20642;-77
2022/05/06 19:59:36;;;;;;;16.37;14.27;;;;;;;;;;7385408;19;20141;-77
2022/05/06 20:02:02;;;;;;;20.13;15.13;;;;;;;;;;7384844;19;20540;-78
2022/05/06 20:04:28;;;;;;;17.67;15.60;;;;;;;;;;7384479;19;20191;-79
2022/05/06 20:06:55;;;;;;;15.17;13.60;;;;;;;;;;7386979;19;20133;-77
2022/05/06 20:09:21;;;;;;;15.83;14.13;;;;;;;;;;7378551;19;20617;-77
2022/05/06 20:11:47;;;;;;;17.53;14.53;;;;;;;;;;7385824;19;20156;-77
2022/05/06 20:14:14;;;;;;;14.57;13.17;;;;;;;;;;7381108;19;20160;-77
2022/05/06 20:16:40;;;;;;;15.07;13.13;;;;;;;;;;7384778;19;20156;-77
2022/05/06 20:19:07;;;;;;;14.90;13.23;;;;;;;;;;7380715;19;20140;-77
2022/05/06 20:21:33;;;;;;;15.00;13.40;;;;;;;;;;7388894;19;20124;-77
2022/05/06 20:24:00;;;;;;;16.67;13.80;;;;;;;;;;7385207;19;20131;-77
2022/05/06 20:26:26;;;;;;;14.80;13.20;;;;;;;;;;7391291;19;20129;-77
2022/05/06 20:28:52;;;;;;;20.53;12.53;;;;;;;;;;7393892;19;20613;-76
2022/05/06 20:31:20;;;;;;;14.50;13.00;;;;;;;;;;7390736;19;20152;-76
2022/05/06 20:33:46;;;;;;;15.20;12.40;;;;;;;;;;7379666;19;20224;-77
2022/05/06 20:36:14;;;;;;;14.50;12.63;;;;;;;;;;7381894;19;20192;-77
2022/05/06 20:38:41;;;;;;;15.30;12.83;;;;;;;;;;7379848;19;20149;-77
2022/05/06 20:41:07;;;;;;;15.83;13.07;;;;;;;;;;7383617;19;20156;-78
2022/05/06 20:43:34;;;;;;;15.67;13.07;;;;;;;;;;7386737;19;20132;-77
2022/05/06 20:46:00;;;;;;;14.57;12.63;;;;;;;;;;7380984;19;20563;-77
2022/05/06 20:48:26;;;;;;;15.73;13.03;;;;;;;;;;7385697;19;20597;-76
2022/05/06 20:50:51;;;;;;;14.20;11.83;;;;;;;;;;7382956;19;20129;-77
2022/05/06 20:53:18;;;;;;;13.70;12.23;;;;;;;;;;7377242;19;20140;-77
2022/05/06 20:55:44;;;;;;;15.87;13.03;;;;;;;;;;7377758;19;20211;-80
2022/05/06 21:00:55;;;;;;;14.67;13.20;;;;;;;;;;7375255;19;20625;-78
2022/05/06 21:03:21;;;;;;;14.20;12.60;;;;;;;;;;7382648;19;20129;-80
2022/05/06 21:05:47;;;;;;;15.47;13.67;;;;;;;;;;7382099;19;20149;-77
2022/05/06 21:13:43;;;;;;;16.27;13.20;;;;;;;;;;7379595;19;20218;-77